createdAt,value
2022-09-07T00:01:15.790Z,3.65
2022-09-07T00:03:43.038Z,3.72
2022-09-07T00:06:13.099Z,4.22
2022-09-07T00:08:43.674Z,4.22
2022-09-07T00:11:18.860Z,4.00
2022-09-07T00:13:49.986Z,3.72
2022-09-07T00:16:23.802Z,3.97
2022-09-07T00:18:54.339Z,3.95
2022-09-07T00:21:21.848Z,3.92
2022-09-07T00:23:50.502Z,3.58
2022-09-07T00:26:26.719Z,3.28
2022-09-07T00:29:01.959Z,3.45
2022-09-07T00:31:31.088Z,3.83
2022-09-07T00:34:01.414Z,3.40
2022-09-07T00:36:30.011Z,3.17
2022-09-07T00:38:57.852Z,3.35
2022-09-07T00:41:25.978Z,3.30
2022-09-07T00:43:59.910Z,3.10
2022-09-07T00:46:32.252Z,3.22
2022-09-07T00:49:18.604Z,3.83
2022-09-07T00:51:57.992Z,3.38
2022-09-07T00:54:42.770Z,3.30
2022-09-07T00:57:10.514Z,3.30
2022-09-07T00:59:44.467Z,3.50
2022-09-07T01:02:17.444Z,3.08
2022-09-07T01:04:52.036Z,3.20
2022-09-07T01:07:38.542Z,3.70
2022-09-07T01:10:07.876Z,3.30
2022-09-07T01:12:35.395Z,2.90
2022-09-07T01:15:03.276Z,3.60
2022-09-07T01:18:33.216Z,3.10
2022-09-07T01:21:25.683Z,2.83
2022-09-07T01:24:10.596Z,2.90
2022-09-07T01:27:29.222Z,2.80
2022-09-07T01:30:03.235Z,3.17
2022-09-07T01:32:40.358Z,3.05
2022-09-07T01:35:20.237Z,2.80
2022-09-07T01:38:04.846Z,2.75
2022-09-07T01:41:10.536Z,2.75
2022-09-07T01:43:54.998Z,3.45
2022-09-07T01:46:41.425Z,2.70
2022-09-07T01:49:20.323Z,2.88
2022-09-07T01:51:53.440Z,3.08
2022-09-07T01:54:34.705Z,2.90
2022-09-07T01:57:09.257Z,3.25
2022-09-07T01:59:53.676Z,3.25
2022-09-07T02:02:33.254Z,3.15
2022-09-07T02:05:22.633Z,3.15
2022-09-07T02:08:02.400Z,3.80
2022-09-07T02:10:45.267Z,3.50
2022-09-07T02:13:29.388Z,3.47
2022-09-07T02:16:17.393Z,3.15
2022-09-07T02:18:57.212Z,2.80
2022-09-07T02:21:51.741Z,2.85
2022-09-07T02:24:26.172Z,3.28
2022-09-07T02:26:56.118Z,3.03
2022-09-07T02:29:24.533Z,3.60
2022-09-07T02:31:53.839Z,3.22
2022-09-07T02:34:21.371Z,3.90
2022-09-07T02:36:50.599Z,3.33
2022-09-07T02:41:46.592Z,2.35
2022-09-07T02:44:25.345Z,3.53
2022-09-07T02:47:44.272Z,3.17
2022-09-07T02:51:04.685Z,3.40
2022-09-07T02:54:16.322Z,3.08
2022-09-07T02:57:10.162Z,3.30
2022-09-07T03:00:11.214Z,2.95
2022-09-07T03:03:05.589Z,3.22
2022-09-07T03:05:49.184Z,2.85
2022-09-07T03:08:23.114Z,3.47
2022-09-07T03:10:52.005Z,3.03
2022-09-07T03:13:27.883Z,3.35
2022-09-07T03:15:56.582Z,3.08
2022-09-07T03:18:26.853Z,3.45
2022-09-07T03:20:54.928Z,3.40
2022-09-07T03:23:22.622Z,3.15
2022-09-07T03:25:49.985Z,3.30
2022-09-07T03:28:17.618Z,3.33
2022-09-07T03:30:47.728Z,3.28
2022-09-07T03:33:34.263Z,3.00
2022-09-07T03:36:02.597Z,3.13
2022-09-07T03:38:31.390Z,3.20
2022-09-07T03:41:04.200Z,2.50
2022-09-07T03:43:32.689Z,2.95
2022-09-07T03:46:03.362Z,2.95
2022-09-07T03:48:50.100Z,3.15
2022-09-07T03:51:19.092Z,2.60
2022-09-07T03:53:47.573Z,3.08
2022-09-07T03:56:19.519Z,3.03
2022-09-07T03:58:49.122Z,3.00
2022-09-07T04:01:22.164Z,3.33
2022-09-07T04:03:50.725Z,3.28
2022-09-07T04:06:18.443Z,2.90
2022-09-07T04:08:45.919Z,3.20
2022-09-07T04:11:16.785Z,3.25
2022-09-07T04:13:45.498Z,3.33
2022-09-07T04:16:20.622Z,3.30
2022-09-07T04:18:50.395Z,2.80
2022-09-07T04:21:22.876Z,3.22
2022-09-07T04:23:50.695Z,3.60
2022-09-07T04:26:27.765Z,3.35
2022-09-07T04:28:55.683Z,3.60
2022-09-07T04:31:24.261Z,2.97
2022-09-07T04:33:53.250Z,3.13
2022-09-07T04:36:22.163Z,3.38
2022-09-07T04:38:56.903Z,3.30
2022-09-07T04:41:24.587Z,3.20
2022-09-07T04:43:59.543Z,3.08
2022-09-07T04:46:30.454Z,3.30
2022-09-07T04:49:00.889Z,3.15
2022-09-07T04:51:31.534Z,3.35
2022-09-07T04:54:02.005Z,3.60
2022-09-07T04:56:30.064Z,3.38
2022-09-07T04:58:57.726Z,3.67
2022-09-07T05:01:26.311Z,3.30
2022-09-07T05:03:54.036Z,3.10
2022-09-07T05:06:23.371Z,3.08
2022-09-07T05:08:53.847Z,2.92
2022-09-07T05:11:28.811Z,2.95
2022-09-07T05:13:59.885Z,2.40
2022-09-07T05:16:28.830Z,2.80
2022-09-07T05:19:00.242Z,2.95
2022-09-07T05:21:31.610Z,2.75
2022-09-07T05:24:00.345Z,2.80
2022-09-07T05:26:30.800Z,2.67
2022-09-07T05:31:50.065Z,2.28
2022-09-07T05:34:33.255Z,2.33
2022-09-07T05:37:01.559Z,2.17
2022-09-07T05:39:29.706Z,3.17
2022-09-07T05:41:57.333Z,3.00
2022-09-07T05:47:08.085Z,2.88
2022-09-07T05:49:35.984Z,2.50
2022-09-07T05:52:03.605Z,1.92
2022-09-07T05:54:30.902Z,2.65
2022-09-07T05:56:58.229Z,2.22
2022-09-07T05:59:26.108Z,2.60
2022-09-07T06:01:53.501Z,3.08
2022-09-07T06:04:20.727Z,3.30
2022-09-07T06:07:04.888Z,3.42
2022-09-07T06:09:35.518Z,3.25
2022-09-07T06:12:05.548Z,4.05
2022-09-07T06:14:35.451Z,3.25
2022-09-07T06:17:21.246Z,3.55
2022-09-07T06:19:48.498Z,3.03
2022-09-07T06:22:15.946Z,3.10
2022-09-07T06:24:43.152Z,3.33
2022-09-07T06:27:10.568Z,3.53
2022-09-07T06:29:37.878Z,3.85
2022-09-07T06:34:52.780Z,3.75
2022-09-07T06:37:20.064Z,3.92
2022-09-07T06:39:48.919Z,4.10
2022-09-07T06:42:16.842Z,4.03
2022-09-07T06:44:45.039Z,4.00
2022-09-07T06:47:12.410Z,4.10
2022-09-07T06:49:39.675Z,4.78
2022-09-07T06:52:06.975Z,3.78
2022-09-07T06:57:21.901Z,3.90
2022-09-07T06:59:49.188Z,4.13
2022-09-07T07:02:16.517Z,3.90
2022-09-07T07:04:44.222Z,3.40
2022-09-07T07:07:13.481Z,3.80
2022-09-07T07:09:41.928Z,4.30
2022-09-07T07:12:10.934Z,3.70
2022-09-07T07:14:43.976Z,4.38
2022-09-07T07:17:13.137Z,4.22
2022-09-07T07:19:40.865Z,3.95
2022-09-07T07:22:23.778Z,3.92
2022-09-07T07:24:56.283Z,3.85
2022-09-07T07:27:23.931Z,4.05
2022-09-07T07:29:52.659Z,3.60
2022-09-07T07:32:20.235Z,4.63
2022-09-07T07:34:50.697Z,3.97
2022-09-07T07:37:17.878Z,4.13
2022-09-07T07:42:33.961Z,4.72
2022-09-07T07:47:51.726Z,3.85
2022-09-07T07:50:35.092Z,4.53
2022-09-07T07:55:51.169Z,3.63
2022-09-07T07:58:18.921Z,3.92
2022-09-07T08:00:55.800Z,4.10
2022-09-07T08:03:24.717Z,3.97
2022-09-07T08:05:52.443Z,3.50
2022-09-07T08:08:20.308Z,3.85
2022-09-07T08:10:48.063Z,3.55
2022-09-07T08:13:16.655Z,2.90
2022-09-07T08:15:47.201Z,3.33
2022-09-07T08:18:16.600Z,2.83
2022-09-07T08:20:44.643Z,3.60
2022-09-07T08:23:12.551Z,3.00
2022-09-07T08:25:52.490Z,3.22
2022-09-07T08:28:21.877Z,3.03
2022-09-07T08:30:49.261Z,3.55
2022-09-07T08:33:17.219Z,3.03
2022-09-07T08:36:04.968Z,2.97
2022-09-07T08:38:34.475Z,2.92
2022-09-07T08:41:18.098Z,2.50
2022-09-07T08:43:59.874Z,3.00
2022-09-07T08:46:48.202Z,2.40
2022-09-07T08:49:46.765Z,3.00
2022-09-07T08:52:26.199Z,2.60
2022-09-07T08:55:09.556Z,2.40
2022-09-07T08:57:43.893Z,2.25
2022-09-07T09:00:15.466Z,2.53
2022-09-07T09:02:44.535Z,2.53
2022-09-07T09:05:53.896Z,2.30
2022-09-07T09:08:46.628Z,2.40
2022-09-07T09:11:41.386Z,2.28
2022-09-07T09:14:56.177Z,2.20
2022-09-07T09:17:41.539Z,1.98
2022-09-07T09:20:24.327Z,2.20
2022-09-07T09:23:07.253Z,2.10
2022-09-07T09:25:36.810Z,1.92
2022-09-07T09:28:04.007Z,2.55
2022-09-07T09:30:31.668Z,2.53
2022-09-07T09:33:23.905Z,2.58
2022-09-07T09:36:00.643Z,1.92
2022-09-07T09:38:44.863Z,1.95
2022-09-07T09:41:14.144Z,2.03
2022-09-07T09:43:44.504Z,2.13
2022-09-07T09:46:26.504Z,2.10
2022-09-07T09:49:01.572Z,2.03
2022-09-07T09:54:36.426Z,1.88
2022-09-07T09:57:03.947Z,1.95
2022-09-07T10:05:37.603Z,2.05
2022-09-07T10:08:21.132Z,1.80
2022-09-07T10:11:15.624Z,2.15
2022-09-07T10:13:54.830Z,2.10
2022-09-07T10:16:41.065Z,2.20
2022-09-07T10:19:35.990Z,2.03
2022-09-07T10:22:32.172Z,1.55
2022-09-07T10:25:01.090Z,1.73
2022-09-07T10:27:33.376Z,1.63
2022-09-07T10:30:03.686Z,1.52
2022-09-07T10:33:06.678Z,1.67
2022-09-07T10:35:52.175Z,1.98
2022-09-07T10:38:23.152Z,1.70
2022-09-07T10:41:01.352Z,1.80
2022-09-07T10:43:48.771Z,1.75
2022-09-07T10:49:39.998Z,1.40
2022-09-07T10:52:27.194Z,1.50
2022-09-07T10:55:20.940Z,1.73
2022-09-07T10:58:05.624Z,1.73
2022-09-07T11:00:55.970Z,1.63
2022-09-07T11:03:47.833Z,2.03
2022-09-07T11:06:40.943Z,2.00
2022-09-07T11:09:32.282Z,1.60
2022-09-07T11:12:15.689Z,1.83
2022-09-07T11:14:54.991Z,1.80
2022-09-07T11:17:28.186Z,1.48
2022-09-07T11:20:15.829Z,1.90
2022-09-07T11:22:50.727Z,1.27
2022-09-07T11:25:33.658Z,1.70
2022-09-07T11:28:15.914Z,1.88
2022-09-07T11:31:00.418Z,1.40
2022-09-07T11:33:37.901Z,1.70
2022-09-07T11:36:17.668Z,1.63
2022-09-07T11:38:59.590Z,1.27
2022-09-07T11:42:42.578Z,1.90
2022-09-07T11:45:00.928Z,1.40
2022-09-07T11:48:08.190Z,1.60
2022-09-07T11:50:41.913Z,1.95
2022-09-07T11:53:20.026Z,1.40
2022-09-07T11:55:54.544Z,1.42
2022-09-07T11:59:00.127Z,1.65
2022-09-07T12:02:06.096Z,1.50
2022-09-07T12:05:04.654Z,1.58
2022-09-07T12:08:04.333Z,1.40
2022-09-07T12:11:11.953Z,1.48
2022-09-07T12:14:02.339Z,1.23
2022-09-07T12:16:42.100Z,1.08
2022-09-07T12:19:39.025Z,1.23
2022-09-07T12:22:22.398Z,1.30
2022-09-07T12:24:53.172Z,1.35
2022-09-07T12:27:20.506Z,1.30
2022-09-07T12:30:09.760Z,1.33
2022-09-07T12:32:56.472Z,1.35
2022-09-07T12:35:31.081Z,1.33
2022-09-07T12:38:02.131Z,1.33
2022-09-07T12:40:29.811Z,1.38
2022-09-07T12:43:15.269Z,1.00
2022-09-07T12:45:42.564Z,1.20
2022-09-07T12:48:16.025Z,1.52
2022-09-07T12:51:59.336Z,1.27
2022-09-07T12:54:26.883Z,1.60
2022-09-07T13:00:23.289Z,1.38
2022-09-07T13:09:41.857Z,1.30
2022-09-07T13:12:56.711Z,1.40
2022-09-07T13:15:52.943Z,1.40
2022-09-07T13:18:30.130Z,1.80
2022-09-07T13:21:09.780Z,1.08
2022-09-07T13:23:51.470Z,1.25
2022-09-07T13:27:15.307Z,1.45
2022-09-07T13:29:55.869Z,1.70
2022-09-07T13:35:27.807Z,1.23
2022-09-07T13:38:01.935Z,1.15
2022-09-07T13:40:39.404Z,1.38
2022-09-07T13:43:19.946Z,1.42
2022-09-07T13:46:02.198Z,1.27
2022-09-07T13:48:51.567Z,1.45
2022-09-07T13:51:49.367Z,1.40
2022-09-07T13:55:23.809Z,1.53
2022-09-07T13:58:31.172Z,1.13
2022-09-07T14:01:06.481Z,1.15
2022-09-07T14:04:09.558Z,1.15
2022-09-07T14:07:28.036Z,1.45
2022-09-07T14:10:26.263Z,1.23
2022-09-07T14:13:06.066Z,1.33
2022-09-07T14:15:44.340Z,1.40
2022-09-07T14:18:15.125Z,1.60
2022-09-07T14:20:49.834Z,1.80
2022-09-07T14:23:31.768Z,1.33
2022-09-07T14:26:22.638Z,1.55
2022-09-07T14:28:53.974Z,1.17
2022-09-07T14:31:24.767Z,1.10
2022-09-07T14:33:59.162Z,1.50
2022-09-07T14:36:47.452Z,1.50
2022-09-07T14:39:17.712Z,1.25
2022-09-07T14:41:46.268Z,0.95
2022-09-07T14:44:43.092Z,1.67
2022-09-07T14:47:46.148Z,1.80
2022-09-07T14:50:24.499Z,1.20
2022-09-07T14:58:32.417Z,1.60
2022-09-07T15:07:42.368Z,2.30
2022-09-07T15:10:31.447Z,10.20
2022-09-07T15:15:40.524Z,1.67
2022-09-07T15:18:54.341Z,1.08
2022-09-07T15:21:24.576Z,1.20
2022-09-07T15:23:58.540Z,1.40
2022-09-07T15:29:29.058Z,2.20
2022-09-07T15:34:32.589Z,1.10
2022-09-07T15:37:01.782Z,3.35
2022-09-07T15:39:30.549Z,1.70
2022-09-07T15:42:00.522Z,2.40
2022-09-07T15:44:45.673Z,1.90
2022-09-07T15:50:00.639Z,2.78
2022-09-07T15:52:28.163Z,2.45
2022-09-07T15:54:59.262Z,1.38
2022-09-07T16:00:15.178Z,1.80
2022-09-07T16:05:33.582Z,1.80
2022-09-07T16:10:54.280Z,1.52
2022-09-07T16:13:24.378Z,1.27
2022-09-07T16:15:52.470Z,1.67
2022-09-07T16:18:21.962Z,1.60
2022-09-07T16:20:52.592Z,1.40
2022-09-07T16:23:20.614Z,1.60
2022-09-07T16:26:00.352Z,1.05
2022-09-07T16:28:28.940Z,1.23
2022-09-07T16:30:57.308Z,1.35
2022-09-07T16:33:35.993Z,0.93
2022-09-07T16:36:09.173Z,1.08
2022-09-07T16:38:44.548Z,1.02
2022-09-07T16:41:26.499Z,1.85
2022-09-07T16:46:40.973Z,1.10
2022-09-07T16:49:08.221Z,1.10
2022-09-07T16:51:35.967Z,1.35
2022-09-07T16:54:03.465Z,1.90
2022-09-07T16:56:35.647Z,1.60
2022-09-07T16:59:07.164Z,2.15
2022-09-07T17:01:38.088Z,1.17
2022-09-07T17:04:10.599Z,1.10
2022-09-07T17:06:39.898Z,1.33
2022-09-07T17:09:07.739Z,1.60
2022-09-07T17:11:36.675Z,1.50
2022-09-07T17:14:06.646Z,1.75
2022-09-07T17:16:38.566Z,1.60
2022-09-07T17:24:24.609Z,1.17
2022-09-07T17:26:51.901Z,1.33
2022-09-07T17:29:19.166Z,1.83
2022-09-07T17:34:33.528Z,1.75
2022-09-07T17:37:01.438Z,1.50
2022-09-07T17:39:29.783Z,1.65
2022-09-07T17:41:58.131Z,1.77
2022-09-07T17:44:25.621Z,1.13
2022-09-07T17:46:53.120Z,1.30
2022-09-07T17:49:20.347Z,2.00
2022-09-07T17:51:48.007Z,1.60
2022-09-07T17:54:19.207Z,1.55
2022-09-07T17:56:46.663Z,1.40
2022-09-07T18:02:01.772Z,1.83
2022-09-07T18:04:29.068Z,1.40
2022-09-07T18:06:56.421Z,1.13
2022-09-07T18:09:24.519Z,1.80
2022-09-07T18:12:10.579Z,1.65
2022-09-07T18:14:37.953Z,1.75
2022-09-07T18:17:06.015Z,1.23
2022-09-07T18:19:33.550Z,1.80
2022-09-07T18:22:04.039Z,1.45
2022-09-07T18:24:31.976Z,1.25
2022-09-07T18:26:59.291Z,1.90
2022-09-07T18:29:32.222Z,1.50
2022-09-07T18:32:07.760Z,1.63
2022-09-07T18:34:38.067Z,1.55
2022-09-07T18:37:09.724Z,1.30
2022-09-07T18:39:37.472Z,1.75
2022-09-07T18:42:04.852Z,1.30
2022-09-07T18:47:28.065Z,1.50
2022-09-07T18:49:56.634Z,1.52
2022-09-07T18:55:12.259Z,1.88
2022-09-07T18:57:39.977Z,1.50
2022-09-07T19:00:09.745Z,1.45
2022-09-07T19:02:37.260Z,1.35
2022-09-07T19:08:10.016Z,1.52
2022-09-07T19:10:38.213Z,1.52
2022-09-07T19:13:05.938Z,1.80
2022-09-07T19:15:37.478Z,1.50
2022-09-07T19:18:08.264Z,1.70
2022-09-07T19:20:37.079Z,1.85
2022-09-07T19:23:05.887Z,1.60
2022-09-07T19:25:33.113Z,2.03
2022-09-07T19:28:00.486Z,2.30
2022-09-07T19:30:28.516Z,2.35
2022-09-07T19:32:56.589Z,2.13
2022-09-07T19:35:25.952Z,2.03
2022-09-07T19:37:53.190Z,2.00
2022-09-07T19:43:06.221Z,1.73
2022-09-07T19:45:38.816Z,2.22
2022-09-07T19:48:24.857Z,2.00
2022-09-07T19:50:52.240Z,1.73
2022-09-07T19:53:19.946Z,1.60
2022-09-07T19:55:47.328Z,1.70
2022-09-07T19:58:14.557Z,2.00
2022-09-07T20:00:42.651Z,1.60
2022-09-07T20:03:11.904Z,2.13
2022-09-07T20:05:41.197Z,1.60
2022-09-07T20:08:09.457Z,1.60
2022-09-07T20:10:36.946Z,1.70
2022-09-07T20:13:04.576Z,1.73
2022-09-07T20:15:31.677Z,1.73
2022-09-07T20:17:59.178Z,2.20
2022-09-07T20:20:26.275Z,1.85
2022-09-07T20:22:53.693Z,2.40
2022-09-07T20:25:21.136Z,1.60
2022-09-07T20:27:48.153Z,2.67
2022-09-07T20:30:17.008Z,1.92
2022-09-07T20:32:45.284Z,1.90
2022-09-07T20:35:12.486Z,2.08
2022-09-07T20:37:39.786Z,2.15
2022-09-07T20:40:08.436Z,1.77
2022-09-07T20:42:35.575Z,2.22
2022-09-07T20:45:06.747Z,2.00
2022-09-07T20:47:37.540Z,1.85
2022-09-07T20:50:05.437Z,1.77
2022-09-07T20:52:32.422Z,1.52
2022-09-07T20:54:59.566Z,1.70
2022-09-07T20:57:26.568Z,1.70
2022-09-07T20:59:53.781Z,2.13
2022-09-07T21:02:21.082Z,1.92
2022-09-07T21:04:48.333Z,2.17
2022-09-07T21:07:15.472Z,1.88
2022-09-07T21:09:42.898Z,2.05
2022-09-07T21:12:10.172Z,1.30
2022-09-07T21:14:37.308Z,1.38
2022-09-07T21:17:04.515Z,1.80
2022-09-07T21:19:31.575Z,0.88
2022-09-07T21:21:58.780Z,0.68
2022-09-07T21:24:26.182Z,0.82
2022-09-07T21:26:53.249Z,0.70
2022-09-07T21:29:24.358Z,0.70
2022-09-07T21:31:54.479Z,0.50
2022-09-07T21:34:23.064Z,0.85
2022-09-07T21:36:51.836Z,0.60
2022-09-07T21:39:19.392Z,0.70
2022-09-07T21:44:31.757Z,0.50
2022-09-07T21:46:58.787Z,0.70
2022-09-07T21:49:25.841Z,0.75
2022-09-07T21:51:52.866Z,0.40
2022-09-07T21:54:20.149Z,0.90
2022-09-07T21:56:47.917Z,0.90
2022-09-07T21:59:15.009Z,0.93
2022-09-07T22:01:42.134Z,0.75
2022-09-07T22:04:09.262Z,1.17
2022-09-07T22:06:37.626Z,0.70
2022-09-07T22:09:05.648Z,0.87
2022-09-07T22:11:32.887Z,1.15
2022-09-07T22:14:02.838Z,1.15
2022-09-07T22:16:31.270Z,1.20
2022-09-07T22:18:58.587Z,0.87
2022-09-07T22:21:28.742Z,0.70
2022-09-07T22:24:02.379Z,0.80
2022-09-07T22:26:34.090Z,1.08
2022-09-07T22:29:01.330Z,0.80
2022-09-07T22:31:34.814Z,0.70
2022-09-07T22:34:04.557Z,0.93
2022-09-07T22:36:42.306Z,0.70
2022-09-07T22:39:14.581Z,0.80
2022-09-07T22:41:43.558Z,1.38
2022-09-07T22:44:15.135Z,0.80
2022-09-07T22:46:44.333Z,1.00
2022-09-07T22:49:15.299Z,0.98
2022-09-07T22:51:42.974Z,0.77
2022-09-07T22:54:10.137Z,0.60
2022-09-07T22:56:38.410Z,1.10
2022-09-07T22:59:08.691Z,0.60
2022-09-07T23:01:36.631Z,0.88
2022-09-07T23:04:05.401Z,0.70
2022-09-07T23:06:39.950Z,0.68
2022-09-07T23:09:17.328Z,0.68
2022-09-07T23:11:46.827Z,0.55
2022-09-07T23:14:21.979Z,0.93
2022-09-07T23:16:52.791Z,0.90
2022-09-07T23:19:20.593Z,0.90
2022-09-07T23:21:48.053Z,1.10
2022-09-07T23:24:17.983Z,0.90
2022-09-07T23:26:46.652Z,1.20
2022-09-07T23:29:15.192Z,1.20
2022-09-07T23:31:42.989Z,1.17
2022-09-07T23:34:10.347Z,1.20
2022-09-07T23:36:37.704Z,1.20
2022-09-07T23:39:05.198Z,1.00
2022-09-07T23:41:32.867Z,1.30
2022-09-07T23:44:00.578Z,0.88
2022-09-07T23:46:27.739Z,1.27
2022-09-07T23:48:55.217Z,1.17
2022-09-07T23:51:24.464Z,1.40
2022-09-07T23:53:53.113Z,0.80
2022-09-07T23:56:21.818Z,1.13
2022-09-07T23:58:49.085Z,1.48
